Barriere, Canada
Current Conditions -  °F | °C
As of 8:00 AM on Friday 28 Nov 2014 (Local Time) from CYKA Reporting Station
Broken Clouds Broken Clouds  
Wind Chill:   Ceiling: 8000
Heat Index: 18°   Visibility: 20mi
Dew Point:   Wind: 22mph
Humidity: 58%   Direction: 280°W
Pressure: 29.71"   Gusts: 31mph
Location:  51.18°N, 120.13°W
Report Text: CYKA 281600Z 28019G27KT 20SM FEW016 SCT040 BKN080 M08/M15 A2971 RMK SF1SC3AC3 SLP076
Loading
Personal Weather Stations






























Interactive Weather Map New forecast layout! Learn more

10-Day Weather Forecast

Advertisements
Track Severe Weather on mobile